Umm al Qaywayn, United Arab Emirates
Current Conditions -  °F | °C
As of 8:00 AM on Saturday 20 Dec 2014 (Local Time) from OMSJ Reporting Station
Clear Clear  
Wind Chill: 61°   Ceiling: Unl
Heat Index: 61°   Visibility: 5mi
Dew Point: 54°   Wind: 2mph
Humidity: 77%   Direction: 120°ESE
Pressure: 30.15"   Gusts: NA
Location:  25.59°N, 55.56°E
Report Text: OMSJ 200400Z 12002KT 8000 NSC 16/12 Q1021
Loading
Personal Weather Stations






























Interactive Weather Map New forecast layout! Learn more

10-Day Weather Forecast

Advertisements
Track Severe Weather on mobile